Time;durP1;ratioP1;P1;durP2;ratioP2;P2;SDS_P1;SDS_P2;PMS_P1;PMS_P2;Temp;Humidity;BMP_temperature;BMP_pressure;BME280_temperature;BME280_humidity;BME280_pressure;Samples;Min_cycle;Max_cycle;Signal;HPM_P1;HPM_P2
2021/09/13 00:02:27;;;;;;;0.68;0.20;;;15.00;99.90;;;;;;6214422;23;20012;-93
2021/09/13 00:04:54;;;;;;;0.00;0.00;;;15.00;99.90;;;;;;6263535;23;20444;-93
2021/09/13 00:07:21;;;;;;;0.10;0.10;;;15.00;99.90;;;;;;6264699;23;20016;-93
2021/09/13 00:09:47;;;;;;;0.10;0.05;;;15.00;99.90;;;;;;6239642;23;20440;-93
2021/09/13 00:12:14;;;;;;;0.10;0.10;;;14.60;99.90;;;;;;6239003;23;20012;-92
2021/09/13 00:14:41;;;;;;;0.00;0.00;;;15.00;99.90;;;;;;6263882;23;20012;-93
2021/09/13 00:17:08;;;;;;;0.10;0.10;;;15.00;99.90;;;;;;6238771;23;20095;-92
2021/09/13 00:19:34;;;;;;;0.10;0.10;;;15.00;99.90;;;;;;6239070;23;20078;-92
2021/09/13 00:22:01;;;;;;;0.13;0.10;;;15.10;99.90;;;;;;6264009;23;20309;-93
2021/09/13 00:24:28;;;;;;;0.00;0.00;;;15.10;99.90;;;;;;6264409;23;20018;-92
2021/09/13 00:26:55;;;;;;;0.10;0.10;;;15.10;99.90;;;;;;6239005;23;20034;-93
2021/09/13 00:29:22;;;;;;;0.10;0.10;;;15.10;99.90;;;;;;6263894;23;20441;-93
2021/09/13 00:31:50;;;;;;;0.20;0.20;;;15.10;99.90;;;;;;6238829;23;20012;-95
2021/09/13 00:34:17;;;;;;;0.00;0.00;;;14.90;99.90;;;;;;6263429;23;20012;-94
2021/09/13 00:36:44;;;;;;;0.05;0.05;;;15.10;99.90;;;;;;6238746;23;20340;-95
2021/09/13 00:39:11;;;;;;;0.20;0.20;;;15.00;99.90;;;;;;6263648;23;20012;-95
2021/09/13 00:41:38;;;;;;;0.00;0.00;;;15.10;99.90;;;;;;6264392;23;20013;-96
2021/09/13 00:44:04;;;;;;;0.03;0.03;;;15.10;99.90;;;;;;6239161;23;20016;-95
2021/09/13 00:46:31;;;;;;;0.17;0.10;;;15.10;99.90;;;;;;6239144;23;20016;-94
2021/09/13 00:48:58;;;;;;;0.00;0.00;;;15.10;99.90;;;;;;6263534;23;20016;-95
2021/09/13 00:51:26;;;;;;;0.32;0.20;;;15.10;99.90;;;;;;6264072;23;20016;-96
2021/09/13 00:53:53;;;;;;;0.00;0.00;;;15.10;99.90;;;;;;6264026;23;20016;-95
2021/09/13 00:56:19;;;;;;;0.00;0.00;;;15.10;99.90;;;;;;6239120;23;20043;-94
2021/09/13 00:58:48;;;;;;;0.38;0.28;;;15.10;99.90;;;;;;6263791;23;20043;-95
2021/09/13 01:01:15;;;;;;;0.63;0.30;;;15.10;99.90;;;;;;6263503;22;20012;-94
2021/09/13 01:03:42;;;;;;;0.32;0.20;;;15.10;99.90;;;;;;6238826;23;20087;-94
2021/09/13 01:06:09;;;;;;;0.10;0.10;;;15.20;99.90;;;;;;6263846;23;20016;-95
2021/09/13 01:08:36;;;;;;;0.10;0.10;;;15.20;99.90;;;;;;6263356;23;20099;-95
2021/09/13 01:11:03;;;;;;;0.10;0.10;;;15.20;99.90;;;;;;6238381;23;20455;-94
2021/09/13 01:13:30;;;;;;;0.10;0.10;;;15.20;99.90;;;;;;6263580;23;20012;-93
2021/09/13 01:16:03;;;;;;;0.28;0.20;;;15.20;99.90;;;;;;6263578;23;20016;-94
2021/09/13 01:18:30;;;;;;;0.00;0.00;;;15.20;99.90;;;;;;6263906;23;20044;-95
2021/09/13 01:20:57;;;;;;;0.15;0.15;;;15.20;99.90;;;;;;6263409;23;20012;-94
2021/09/13 01:23:42;;;;;;;0.45;0.20;;;15.20;99.90;;;;;;6263142;23;20019;-95
2021/09/13 01:26:09;;;;;;;0.00;0.00;;;15.20;99.90;;;;;;6263421;23;20345;-95
2021/09/13 01:28:36;;;;;;;0.15;0.15;;;15.20;99.90;;;;;;6263843;23;20503;-96
2021/09/13 01:31:03;;;;;;;0.10;0.10;;;15.20;99.90;;;;;;6263266;23;20050;-95
2021/09/13 01:33:30;;;;;;;0.00;0.00;;;15.20;99.90;;;;;;6238323;23;20113;-95
2021/09/13 01:35:57;;;;;;;0.10;0.10;;;15.20;99.90;;;;;;6262961;23;20023;-94
2021/09/13 01:38:26;;;;;;;0.00;0.00;;;15.20;99.90;;;;;;6237955;23;20051;-94
2021/09/13 01:40:53;;;;;;;0.10;0.10;;;15.20;99.90;;;;;;6263345;23;20009;-95
2021/09/13 01:43:20;;;;;;;0.10;0.10;;;15.20;99.90;;;;;;6263479;23;20328;-96
2021/09/13 01:45:47;;;;;;;0.20;0.20;;;15.20;99.90;;;;;;6238274;23;20016;-95
2021/09/13 01:48:14;;;;;;;0.00;0.00;;;15.20;99.90;;;;;;6263122;23;20023;-95
2021/09/13 01:50:41;;;;;;;0.00;0.00;;;15.20;99.90;;;;;;6238915;23;20054;-95
2021/09/13 01:53:07;;;;;;;0.15;0.10;;;15.20;99.90;;;;;;6263578;23;20074;-94
2021/09/13 01:55:34;;;;;;;0.08;0.08;;;15.10;99.90;;;;;;6263576;23;20332;-95
2021/09/13 01:58:01;;;;;;;0.10;0.10;;;15.10;99.90;;;;;;6263568;23;20012;-95
2021/09/13 02:00:28;;;;;;;0.38;0.10;;;15.20;99.90;;;;;;6238069;23;20012;-94
2021/09/13 02:02:55;;;;;;;0.60;0.30;;;15.10;99.90;;;;;;6213586;23;20095;-94
2021/09/13 02:05:21;;;;;;;0.00;0.00;;;15.10;99.90;;;;;;6263099;23;20023;-95
2021/09/13 02:07:48;;;;;;;0.30;0.20;;;15.10;99.90;;;;;;6263468;23;20020;-95
2021/09/13 02:10:15;;;;;;;0.20;0.13;;;15.10;99.90;;;;;;6263204;23;20104;-96
2021/09/13 02:12:42;;;;;;;0.10;0.10;;;15.10;99.90;;;;;;6263178;23;20142;-96
2021/09/13 02:15:09;;;;;;;0.10;0.10;;;15.10;99.90;;;;;;6238373;23;20023;-95
2021/09/13 02:17:36;;;;;;;0.10;0.10;;;15.10;99.90;;;;;;6263360;23;20022;-96
2021/09/13 02:20:03;;;;;;;0.00;0.00;;;15.10;99.90;;;;;;6263228;23;20008;-95
2021/09/13 02:22:30;;;;;;;0.10;0.10;;;15.10;99.90;;;;;;6237831;23;20008;-94
2021/09/13 02:24:56;;;;;;;0.00;0.00;;;14.90;99.90;;;;;;6263213;23;20050;-95
2021/09/13 02:27:23;;;;;;;0.30;0.20;;;15.20;99.90;;;;;;6263172;23;20016;-94
2021/09/13 02:29:50;;;;;;;0.00;0.00;;;15.10;99.90;;;;;;6238354;23;20012;-96
2021/09/13 02:32:17;;;;;;;0.00;0.00;;;15.10;99.90;;;;;;6263104;23;20016;-95
2021/09/13 02:34:43;;;;;;;0.00;0.00;;;15.10;99.90;;;;;;6238024;23;20385;-94
2021/09/13 02:37:10;;;;;;;0.10;0.10;;;15.10;99.90;;;;;;6239170;23;20012;-95
2021/09/13 02:39:37;;;;;;;0.15;0.13;;;15.10;99.90;;;;;;6265651;23;20019;-94
2021/09/13 02:42:04;;;;;;;0.10;0.10;;;15.10;99.90;;;;;;6265415;23;20031;-94
2021/09/13 02:44:31;;;;;;;0.17;0.17;;;15.10;99.90;;;;;;6239887;23;20046;-95
2021/09/13 02:46:57;;;;;;;0.00;0.00;;;15.10;99.90;;;;;;6215788;23;20016;-93
2021/09/13 02:49:24;;;;;;;0.10;0.10;;;15.10;99.90;;;;;;6265065;23;20015;-94
2021/09/13 02:51:52;;;;;;;0.00;0.00;;;15.10;99.90;;;;;;6240153;23;20070;-95
2021/09/13 02:54:19;;;;;;;0.00;0.00;;;15.10;99.90;;;;;;6240173;23;20047;-94
2021/09/13 02:56:46;;;;;;;0.00;0.00;;;15.10;99.90;;;;;;6265058;23;20031;-94
2021/09/13 02:59:13;;;;;;;0.10;0.10;;;15.10;99.90;;;;;;6239938;23;20433;-94
2021/09/13 03:01:39;;;;;;;0.10;0.10;;;15.10;99.90;;;;;;6265283;23;20009;-94
2021/09/13 03:04:06;;;;;;;0.00;0.00;;;15.10;99.90;;;;;;6264766;23;20502;-94
2021/09/13 03:06:33;;;;;;;2.33;0.22;;;15.10;99.90;;;;;;6264778;23;20013;-94
2021/09/13 03:09:00;;;;;;;0.00;0.00;;;15.10;99.90;;;;;;6265159;23;20019;-94
2021/09/13 03:11:26;;;;;;;0.00;0.00;;;15.10;99.90;;;;;;6239897;23;20401;-94
2021/09/13 03:13:55;;;;;;;0.28;0.20;;;15.10;99.90;;;;;;6264811;23;20016;-95
2021/09/13 03:16:21;;;;;;;0.00;0.00;;;15.10;99.90;;;;;;6264757;23;20055;-93
2021/09/13 03:18:48;;;;;;;0.00;0.00;;;15.00;99.90;;;;;;6264622;23;20375;-94
2021/09/13 03:21:15;;;;;;;0.00;0.00;;;15.10;99.90;;;;;;6264773;23;20089;-94
2021/09/13 03:23:42;;;;;;;0.10;0.10;;;15.10;99.90;;;;;;6239793;23;20012;-95
2021/09/13 03:26:09;;;;;;;0.00;0.00;;;15.00;99.90;;;;;;6264891;23;20020;-95
2021/09/13 03:28:36;;;;;;;0.00;0.00;;;15.00;99.90;;;;;;6264466;23;20436;-94
2021/09/13 03:31:03;;;;;;;0.10;0.10;;;15.00;99.90;;;;;;6239733;23;20012;-94
2021/09/13 03:33:30;;;;;;;0.00;0.00;;;15.00;99.90;;;;;;6264530;23;20369;-94
2021/09/13 03:35:57;;;;;;;0.10;0.10;;;15.00;99.90;;;;;;6238635;23;20016;-94
2021/09/13 03:38:24;;;;;;;0.00;0.00;;;15.00;99.90;;;;;;6264480;23;20012;-93
2021/09/13 03:40:50;;;;;;;0.05;0.00;;;15.00;99.90;;;;;;6264378;23;20012;-93
2021/09/13 03:43:17;;;;;;;0.10;0.10;;;15.00;99.90;;;;;;6264941;23;20074;-94
2021/09/13 03:45:44;;;;;;;0.10;0.10;;;15.00;99.90;;;;;;6264269;23;20018;-94
2021/09/13 03:48:11;;;;;;;0.00;0.00;;;15.00;99.90;;;;;;6264402;23;20074;-94
2021/09/13 03:50:38;;;;;;;0.00;0.00;;;15.00;99.90;;;;;;6239202;23;20440;-94
2021/09/13 03:53:04;;;;;;;0.00;0.00;;;15.00;99.90;;;;;;6264914;23;20012;-93
2021/09/13 03:55:32;;;;;;;0.00;0.00;;;15.00;99.90;;;;;;6264080;23;20066;-94
2021/09/13 03:57:59;;;;;;;0.10;0.10;;;15.00;99.90;;;;;;6239542;23;20044;-94
2021/09/13 04:00:26;;;;;;;0.00;0.00;;;15.00;99.90;;;;;;6238843;23;20013;-93
2021/09/13 04:02:53;;;;;;;0.00;0.00;;;14.80;99.90;;;;;;6264283;23;20020;-93
2021/09/13 04:05:22;;;;;;;0.40;0.15;;;15.00;99.90;;;;;;6263939;23;20016;-93
2021/09/13 04:10:37;;;;;;;0.00;0.00;;;15.00;99.90;;;;;;6289283;23;20109;-93
2021/09/13 04:13:04;;;;;;;0.00;0.00;;;15.00;99.90;;;;;;6264468;23;20146;-94
2021/09/13 04:15:31;;;;;;;0.00;0.00;;;14.90;99.90;;;;;;6238827;23;20443;-93
2021/09/13 04:17:58;;;;;;;0.10;0.10;;;14.90;99.90;;;;;;6263732;23;20336;-93
2021/09/13 04:20:24;;;;;;;0.10;0.10;;;14.90;99.90;;;;;;6264233;23;20429;-93
2021/09/13 04:22:51;;;;;;;0.15;0.08;;;14.90;99.90;;;;;;6264118;23;20012;-94
2021/09/13 04:25:18;;;;;;;0.00;0.00;;;14.90;99.90;;;;;;6263951;23;20095;-93
2021/09/13 04:27:45;;;;;;;0.10;0.10;;;14.90;99.90;;;;;;6263646;23;20047;-92
2021/09/13 04:30:12;;;;;;;0.00;0.00;;;14.90;99.90;;;;;;6264431;23;20016;-93
2021/09/13 04:32:38;;;;;;;0.20;0.10;;;14.90;99.90;;;;;;6263806;23;20016;-93
2021/09/13 04:35:06;;;;;;;0.15;0.10;;;14.90;99.90;;;;;;6262810;23;20016;-92
2021/09/13 04:37:32;;;;;;;0.00;0.00;;;14.80;99.90;;;;;;6240087;23;20016;-93
2021/09/13 04:39:59;;;;;;;0.13;0.13;;;14.80;99.90;;;;;;6239463;23;20368;-93
2021/09/13 04:42:26;;;;;;;0.00;0.00;;;14.80;99.90;;;;;;6238199;23;20069;-93
2021/09/13 04:44:53;;;;;;;0.03;0.03;;;14.70;99.90;;;;;;6238651;23;20023;-93
2021/09/13 04:47:19;;;;;;;0.00;0.00;;;14.70;99.90;;;;;;6239098;23;20019;-94
2021/09/13 04:49:46;;;;;;;0.05;0.05;;;14.70;99.90;;;;;;6238279;23;20016;-93
2021/09/13 04:52:13;;;;;;;0.20;0.10;;;14.70;99.90;;;;;;6238553;23;20421;-94
2021/09/13 04:54:40;;;;;;;0.00;0.00;;;14.70;99.90;;;;;;6237804;23;20082;-94
2021/09/13 04:57:06;;;;;;;0.70;0.20;;;14.60;99.90;;;;;;6238583;23;20046;-94
2021/09/13 04:59:33;;;;;;;0.00;0.00;;;14.60;99.90;;;;;;6237396;23;20457;-94
2021/09/13 05:02:00;;;;;;;0.00;0.00;;;14.50;99.90;;;;;;6238381;23;20383;-93
2021/09/13 05:04:27;;;;;;;0.10;0.10;;;14.60;99.90;;;;;;6238209;23;20035;-94
2021/09/13 05:06:54;;;;;;;0.00;0.00;;;14.50;99.90;;;;;;6238345;23;20094;-94
2021/09/13 05:09:20;;;;;;;0.10;0.10;;;14.50;99.90;;;;;;6237545;23;20016;-93
2021/09/13 05:11:47;;;;;;;0.00;0.00;;;14.40;99.90;;;;;;6237955;23;20376;-93
2021/09/13 05:14:14;;;;;;;0.00;0.00;;;14.30;99.90;;;;;;6213884;23;20020;-94
2021/09/13 05:16:41;;;;;;;0.10;0.10;;;14.30;99.90;;;;;;6238830;23;20012;-94
2021/09/13 05:19:07;;;;;;;0.00;0.00;;;14.20;99.90;;;;;;6238958;23;20008;-94
2021/09/13 05:21:38;;;;;;;0.05;0.05;;;14.20;99.90;;;;;;6213813;23;20029;-94
2021/09/13 05:24:06;;;;;;;0.00;0.00;;;14.20;99.90;;;;;;6214629;23;20087;-88
2021/09/13 05:26:33;;;;;;;0.00;0.00;;;14.20;99.90;;;;;;6213087;23;20438;-92
2021/09/13 05:29:00;;;;;;;0.10;0.10;;;14.10;99.90;;;;;;6263877;23;20008;-90
2021/09/13 05:31:27;;;;;;;0.05;0.05;;;14.10;99.90;;;;;;6215367;23;20371;-91
2021/09/13 05:33:53;;;;;;;0.00;0.00;;;14.10;99.90;;;;;;6238265;23;20492;-90
2021/09/13 05:36:20;;;;;;;0.00;0.00;;;14.10;99.90;;;;;;6213412;23;20047;-88
2021/09/13 05:38:47;;;;;;;0.00;0.00;;;14.10;99.90;;;;;;6234750;23;20088;-87
2021/09/13 05:41:13;;;;;;;0.00;0.00;;;14.00;99.90;;;;;;6212931;23;20019;-87
2021/09/13 05:43:40;;;;;;;0.00;0.00;;;14.00;99.90;;;;;;6212218;23;20441;-86
2021/09/13 05:46:07;;;;;;;0.25;0.15;;;14.00;99.90;;;;;;6237288;23;20022;-87
2021/09/13 05:48:34;;;;;;;0.10;0.10;;;14.00;99.90;;;;;;6212764;23;20035;-86
2021/09/13 05:51:00;;;;;;;0.00;0.00;;;14.10;99.90;;;;;;6238149;23;20066;-86
2021/09/13 05:53:27;;;;;;;0.00;0.00;;;14.10;99.90;;;;;;6215242;23;20023;-91
2021/09/13 05:55:54;;;;;;;0.00;0.00;;;14.10;99.90;;;;;;6238428;23;20012;-88
2021/09/13 05:58:21;;;;;;;0.20;0.15;;;14.10;99.90;;;;;;6214817;23;20012;-86
2021/09/13 06:00:47;;;;;;;0.00;0.00;;;14.10;99.90;;;;;;6213927;23;20467;-89
2021/09/13 06:03:14;;;;;;;0.00;0.00;;;14.10;99.90;;;;;;6213182;23;20024;-90
2021/09/13 06:05:42;;;;;;;0.00;0.00;;;14.20;99.90;;;;;;6213281;23;20016;-93
2021/09/13 06:08:15;;;;;;;0.00;0.00;;;14.20;99.90;;;;;;6213386;23;20016;-91
2021/09/13 06:10:42;;;;;;;0.00;0.00;;;14.30;99.90;;;;;;6238536;23;20018;-89
2021/09/13 06:13:11;;;;;;;0.00;0.00;;;14.30;99.90;;;;;;6212674;23;20052;-85
2021/09/13 06:15:39;;;;;;;0.00;0.00;;;14.30;99.90;;;;;;6212542;23;20016;-86
2021/09/13 06:18:07;;;;;;;0.00;0.00;;;14.30;99.90;;;;;;6212461;23;20012;-89
2021/09/13 06:20:33;;;;;;;0.00;0.00;;;14.30;99.90;;;;;;6211915;23;20508;-85
2021/09/13 06:23:00;;;;;;;0.15;0.08;;;14.30;99.90;;;;;;6212768;23;20105;-91
2021/09/13 14:14:42;;;;;;;0.00;0.00;;;19.20;99.90;;;;;;5187774;27;20906;-84
2021/09/13 14:17:09;;;;;;;0.05;0.05;;;19.10;99.90;;;;;;5114600;28;20043;-86
2021/09/13 14:19:36;;;;;;;0.00;0.00;;;19.00;99.90;;;;;;5098277;28;20482;-84
2021/09/13 14:22:02;;;;;;;0.10;0.10;;;19.00;99.90;;;;;;5097544;28;20039;-84
2021/09/13 14:24:29;;;;;;;0.10;0.08;;;19.00;99.90;;;;;;5131655;28;20036;-84
2021/09/13 14:26:56;;;;;;;0.43;0.22;;;18.90;99.90;;;;;;5097607;28;20040;-84
2021/09/13 14:29:22;;;;;;;0.30;0.30;;;18.90;99.90;;;;;;5114372;28;20035;-84
2021/09/13 14:31:49;;;;;;;0.20;0.20;;;18.90;99.90;;;;;;5114401;28;20126;-84
2021/09/13 14:34:16;;;;;;;0.10;0.10;;;19.00;99.90;;;;;;5114132;28;20533;-84
2021/09/13 14:36:43;;;;;;;0.10;0.10;;;19.10;99.90;;;;;;5115309;28;20039;-84
2021/09/13 14:39:09;;;;;;;0.08;0.08;;;19.10;99.90;;;;;;5099779;28;20043;-84
2021/09/13 14:41:37;;;;;;;0.22;0.20;;;19.10;99.90;;;;;;5097833;28;20126;-84
2021/09/13 14:44:04;;;;;;;0.38;0.10;;;19.10;99.90;;;;;;5114050;28;20035;-84
2021/09/13 14:46:31;;;;;;;0.28;0.15;;;18.90;99.90;;;;;;5113682;28;20035;-84
2021/09/13 14:48:58;;;;;;;0.10;0.10;;;18.90;99.90;;;;;;5113588;28;20042;-85
2021/09/13 14:51:24;;;;;;;0.10;0.10;;;18.90;99.90;;;;;;5098727;28;20040;-84
2021/09/13 14:53:51;;;;;;;0.10;0.05;;;18.80;99.90;;;;;;5113906;28;20406;-84
2021/09/13 14:56:18;;;;;;;0.30;0.22;;;18.70;99.90;;;;;;5130566;28;20042;-84
2021/09/13 14:58:45;;;;;;;0.32;0.22;;;18.60;99.90;;;;;;5113502;28;20054;-84
2021/09/13 15:01:11;;;;;;;0.28;0.22;;;18.50;99.90;;;;;;5097038;28;20050;-84
2021/09/13 15:03:38;;;;;;;1.88;0.45;;;18.50;99.90;;;;;;5113644;28;20126;-84
2021/09/13 15:06:05;;;;;;;0.05;0.05;;;18.50;99.90;;;;;;5097102;28;20563;-84
2021/09/13 15:08:31;;;;;;;0.60;0.30;;;18.40;99.90;;;;;;5096897;28;20043;-84
2021/09/13 15:10:58;;;;;;;0.57;0.40;;;18.40;99.90;;;;;;5113191;28;20035;-86
2021/09/13 15:13:25;;;;;;;0.22;0.20;;;18.40;99.90;;;;;;5096627;28;20407;-84
2021/09/13 15:15:51;;;;;;;0.25;0.25;;;18.30;99.90;;;;;;5113686;28;20372;-84
2021/09/13 15:18:18;;;;;;;0.47;0.22;;;18.30;99.90;;;;;;5113380;28;20056;-84
2021/09/13 15:20:46;;;;;;;0.32;0.30;;;18.20;99.90;;;;;;5113390;28;20036;-84
2021/09/13 15:23:14;;;;;;;1.25;0.38;;;18.10;99.90;;;;;;5096913;28;20484;-84
2021/09/13 15:25:42;;;;;;;1.25;0.50;;;18.10;99.90;;;;;;5101585;28;20096;-84
2021/09/13 15:28:11;;;;;;;0.52;0.40;;;18.10;99.90;;;;;;5083316;28;20399;-84
2021/09/13 15:30:38;;;;;;;0.10;0.10;;;18.20;99.90;;;;;;5100102;28;20055;-84
2021/09/13 15:33:06;;;;;;;0.30;0.20;;;18.20;99.90;;;;;;5115952;28;20134;-84
2021/09/13 15:35:33;;;;;;;0.10;0.10;;;18.10;99.90;;;;;;5116459;28;20141;-84
2021/09/13 15:38:01;;;;;;;0.35;0.20;;;18.20;99.90;;;;;;5116551;28;20069;-84
2021/09/13 15:40:28;;;;;;;0.10;0.10;;;18.10;99.90;;;;;;5133333;28;20085;-84
2021/09/13 15:42:54;;;;;;;0.75;0.20;;;18.00;99.90;;;;;;5082886;28;20035;-84
2021/09/13 15:45:21;;;;;;;0.05;0.05;;;17.90;99.90;;;;;;5116177;28;20035;-84
2021/09/13 15:47:48;;;;;;;0.20;0.20;;;17.80;99.90;;;;;;5099405;28;20044;-84
2021/09/13 15:50:15;;;;;;;0.25;0.25;;;17.80;99.90;;;;;;5116219;28;20047;-84
2021/09/13 15:52:42;;;;;;;2.45;0.20;;;17.70;99.90;;;;;;5099719;28;20035;-84
2021/09/13 15:55:09;;;;;;;1.73;0.20;;;17.70;99.90;;;;;;5115893;28;20040;-84
2021/09/13 15:57:37;;;;;;;0.20;0.20;;;17.70;99.90;;;;;;5115908;28;20393;-84
2021/09/13 16:00:07;;;;;;;0.15;0.10;;;17.70;99.90;;;;;;5132491;28;20104;-85
2021/09/13 16:02:38;;;;;;;0.10;0.10;;;17.70;99.90;;;;;;5099190;28;20506;-84
2021/09/13 16:05:07;;;;;;;0.75;0.20;;;17.70;99.90;;;;;;5115528;28;20044;-85
2021/09/13 16:07:34;;;;;;;0.10;0.10;;;17.70;99.90;;;;;;5115707;28;20151;-84
2021/09/13 16:10:03;;;;;;;0.10;0.10;;;17.70;99.90;;;;;;5115660;28;20051;-84
2021/09/13 16:12:30;;;;;;;0.35;0.13;;;17.70;99.90;;;;;;5115148;28;20039;-85
2021/09/13 16:14:59;;;;;;;0.17;0.10;;;17.60;99.90;;;;;;5082364;28;20052;-84
2021/09/13 16:17:26;;;;;;;0.08;0.08;;;17.60;99.90;;;;;;5082397;28;20495;-84
2021/09/13 16:19:53;;;;;;;0.00;0.00;;;17.60;99.90;;;;;;5115813;28;20043;-84
2021/09/13 16:22:19;;;;;;;0.10;0.10;;;17.50;99.90;;;;;;5081859;28;20475;-84
2021/09/13 16:24:47;;;;;;;0.10;0.10;;;17.50;99.90;;;;;;5098796;28;20180;-84
2021/09/13 16:27:14;;;;;;;0.10;0.10;;;17.50;99.90;;;;;;5098554;28;20122;-84
2021/09/13 16:29:41;;;;;;;0.00;0.00;;;17.40;99.90;;;;;;5082112;28;20177;-84
2021/09/13 16:32:09;;;;;;;0.10;0.10;;;17.40;99.90;;;;;;5115047;28;20097;-85
2021/09/13 16:34:37;;;;;;;0.05;0.05;;;17.40;99.90;;;;;;5115209;28;20073;-84
2021/09/13 16:37:06;;;;;;;0.10;0.10;;;17.40;99.90;;;;;;5098116;28;20097;-84
2021/09/13 16:39:36;;;;;;;0.03;0.03;;;17.30;99.90;;;;;;5098466;28;20039;-84
2021/09/13 16:42:07;;;;;;;0.10;0.10;;;17.30;99.90;;;;;;5115124;28;20036;-84
2021/09/13 16:44:38;;;;;;;0.20;0.20;;;17.30;99.90;;;;;;5083416;28;20069;-84
2021/09/13 16:47:05;;;;;;;0.10;0.10;;;17.30;99.90;;;;;;5114925;28;20043;-84
2021/09/13 16:49:33;;;;;;;0.00;0.00;;;17.20;99.90;;;;;;5114565;28;20479;-84
2021/09/13 16:51:59;;;;;;;0.90;0.50;;;17.20;99.90;;;;;;5098268;28;20039;-84
2021/09/13 16:54:26;;;;;;;0.20;0.20;;;17.10;99.90;;;;;;5114576;28;20101;-84
2021/09/13 16:56:53;;;;;;;0.10;0.10;;;17.10;99.90;;;;;;5098185;28;20043;-84
2021/09/13 16:59:20;;;;;;;0.10;0.10;;;17.10;99.90;;;;;;5081349;28;20065;-85
2021/09/13 17:01:47;;;;;;;0.20;0.20;;;17.00;99.90;;;;;;5116646;28;20470;-84
2021/09/13 17:04:14;;;;;;;0.10;0.10;;;17.00;99.90;;;;;;5097628;28;20436;-83
2021/09/13 17:06:41;;;;;;;0.20;0.20;;;17.00;99.90;;;;;;5081392;28;20130;-84
2021/09/13 17:09:10;;;;;;;0.45;0.25;;;16.90;99.90;;;;;;5081627;28;20481;-84
2021/09/13 17:11:39;;;;;;;0.20;0.20;;;16.80;99.90;;;;;;5114791;28;20036;-85
2021/09/13 17:14:06;;;;;;;0.10;0.10;;;16.80;99.90;;;;;;5081329;28;20048;-85
2021/09/13 17:16:32;;;;;;;0.68;0.30;;;16.70;99.90;;;;;;5097706;28;20133;-85
2021/09/13 17:19:00;;;;;;;0.30;0.30;;;16.70;99.90;;;;;;5081127;28;20508;-85
2021/09/13 17:21:27;;;;;;;0.10;0.10;;;16.60;99.90;;;;;;5114237;28;20110;-85
2021/09/13 17:23:56;;;;;;;0.10;0.10;;;16.60;99.90;;;;;;5098018;28;20043;-85
2021/09/13 17:26:24;;;;;;;0.32;0.20;;;16.50;99.90;;;;;;5113714;28;20044;-86
2021/09/13 17:28:51;;;;;;;0.75;0.32;;;16.40;99.90;;;;;;5114563;28;20052;-88
2021/09/13 17:31:18;;;;;;;0.10;0.10;;;16.30;99.90;;;;;;5114374;28;20048;-84
2021/09/13 17:33:46;;;;;;;0.10;0.10;;;16.30;99.90;;;;;;5114056;28;20047;-83
2021/09/13 17:36:15;;;;;;;0.00;0.00;;;16.20;99.90;;;;;;5114219;28;20031;-84
2021/09/13 17:38:42;;;;;;;0.45;0.20;;;16.20;99.90;;;;;;5114235;28;20035;-84
2021/09/13 17:41:12;;;;;;;0.05;0.05;;;16.20;99.90;;;;;;5097454;28;20146;-85
2021/09/13 17:43:41;;;;;;;0.10;0.10;;;16.00;99.90;;;;;;5114052;28;20040;-85
2021/09/13 17:46:09;;;;;;;0.25;0.08;;;15.90;99.90;;;;;;5097269;28;20395;-85
2021/09/13 17:48:36;;;;;;;1.27;0.43;;;15.80;99.90;;;;;;5097070;28;20047;-85
2021/09/13 17:51:04;;;;;;;0.10;0.10;;;15.70;99.90;;;;;;5097091;28;20039;-85
2021/09/13 17:53:31;;;;;;;0.40;0.20;;;15.60;99.90;;;;;;5080254;28;20859;-85
2021/09/13 17:55:58;;;;;;;0.25;0.10;;;15.50;99.90;;;;;;5096731;28;20031;-86
2021/09/13 17:58:25;;;;;;;0.10;0.10;;;15.40;99.90;;;;;;5096654;28;20035;-85
2021/09/13 18:00:52;;;;;;;0.00;0.00;;;15.30;99.90;;;;;;5113439;28;20046;-85
2021/09/13 18:03:19;;;;;;;0.15;0.10;;;15.10;99.90;;;;;;5079946;28;20399;-85
2021/09/13 18:05:46;;;;;;;0.10;0.10;;;15.10;99.90;;;;;;5096679;28;20032;-85
2021/09/13 18:08:12;;;;;;;0.00;0.00;;;15.00;99.90;;;;;;5096505;28;20046;-85
2021/09/13 18:10:39;;;;;;;0.05;0.05;;;14.80;99.90;;;;;;5080274;28;20046;-84
2021/09/13 18:13:06;;;;;;;0.10;0.10;;;14.80;99.90;;;;;;5096635;28;20055;-84
2021/09/13 18:15:33;;;;;;;0.20;0.20;;;14.70;99.90;;;;;;5080398;28;20038;-85
2021/09/13 18:17:59;;;;;;;0.20;0.20;;;14.60;99.90;;;;;;5096928;28;20075;-85
2021/09/13 18:20:26;;;;;;;0.10;0.10;;;14.50;99.90;;;;;;5080078;28;20036;-85
2021/09/13 18:22:53;;;;;;;0.25;0.20;;;14.40;99.90;;;;;;5080168;28;20040;-85
2021/09/13 18:25:19;;;;;;;0.10;0.10;;;14.30;99.90;;;;;;5079888;28;20070;-85
2021/09/13 18:27:46;;;;;;;0.00;0.00;;;14.30;99.90;;;;;;5113470;28;20502;-85
2021/09/13 18:30:13;;;;;;;0.55;0.30;;;14.20;99.90;;;;;;5113461;28;20070;-85
2021/09/13 18:32:40;;;;;;;0.15;0.15;;;14.20;99.90;;;;;;5130048;28;20040;-85
2021/09/13 18:35:07;;;;;;;0.00;0.00;;;14.10;99.90;;;;;;5113315;28;20088;-85
2021/09/13 18:37:34;;;;;;;0.32;0.20;;;14.00;99.90;;;;;;5096275;28;20529;-85
2021/09/13 18:40:01;;;;;;;0.10;0.10;;;14.00;99.90;;;;;;5080153;28;20128;-85
2021/09/13 18:42:27;;;;;;;0.00;0.00;;;14.00;99.90;;;;;;5096313;28;20471;-85
2021/09/13 18:44:54;;;;;;;0.00;0.00;;;13.90;99.90;;;;;;5113680;28;20510;-85
2021/09/13 18:47:21;;;;;;;0.10;0.10;;;13.90;99.90;;;;;;5112772;28;20043;-86
2021/09/13 18:49:47;;;;;;;0.10;0.10;;;13.90;99.90;;;;;;5080062;28;20040;-85
2021/09/13 18:52:14;;;;;;;0.03;0.03;;;13.80;99.90;;;;;;5080103;28;20044;-85
2021/09/13 18:54:41;;;;;;;0.10;0.10;;;13.80;99.90;;;;;;5079271;28;20048;-85
2021/09/13 18:57:08;;;;;;;0.10;0.10;;;13.80;99.90;;;;;;5080237;28;20036;-85
2021/09/13 18:59:34;;;;;;;0.00;0.00;;;13.80;99.90;;;;;;5096912;28;20075;-85
2021/09/13 19:02:01;;;;;;;0.10;0.10;;;13.70;99.90;;;;;;5100345;28;20039;-85
2021/09/13 19:04:28;;;;;;;0.05;0.03;;;13.70;99.90;;;;;;5083473;28;20428;-85
2021/09/13 19:06:55;;;;;;;0.00;0.00;;;13.70;99.90;;;;;;5100665;28;20039;-85
2021/09/13 19:09:21;;;;;;;0.52;0.35;;;13.60;99.90;;;;;;5100338;28;20047;-85
2021/09/13 19:11:48;;;;;;;0.10;0.10;;;13.50;99.90;;;;;;5083179;28;20077;-85
2021/09/13 19:14:15;;;;;;;0.00;0.00;;;13.50;99.90;;;;;;5083249;28;20054;-85
2021/09/13 19:16:42;;;;;;;0.05;0.05;;;13.50;99.90;;;;;;5083076;28;20040;-85
2021/09/13 19:19:09;;;;;;;0.08;0.03;;;13.40;99.90;;;;;;5099958;28;20044;-85
2021/09/13 19:21:36;;;;;;;0.00;0.00;;;13.40;99.90;;;;;;5116258;28;20071;-85
2021/09/13 19:24:05;;;;;;;0.05;0.05;;;13.40;99.90;;;;;;5100260;28;20552;-85
2021/09/13 19:26:31;;;;;;;0.30;0.20;;;13.40;99.90;;;;;;5100427;28;20049;-85
2021/09/13 19:28:58;;;;;;;0.00;0.00;;;13.40;99.90;;;;;;5099789;28;20043;-84
2021/09/13 19:31:25;;;;;;;0.20;0.10;;;13.30;99.90;;;;;;5083022;28;20123;-85
2021/09/13 19:33:52;;;;;;;0.03;0.03;;;13.30;99.90;;;;;;5099355;28;20477;-85
2021/09/13 19:36:19;;;;;;;0.00;0.00;;;13.30;99.90;;;;;;5100035;28;20363;-85
2021/09/13 19:38:46;;;;;;;0.03;0.03;;;13.20;99.90;;;;;;5082956;28;20096;-85
2021/09/13 19:41:13;;;;;;;0.08;0.08;;;13.20;99.90;;;;;;5083154;28;20126;-85
2021/09/13 19:43:40;;;;;;;0.00;0.00;;;13.20;99.90;;;;;;5116214;28;20035;-84
2021/09/13 19:46:12;;;;;;;0.05;0.05;;;13.10;99.90;;;;;;5099331;28;20048;-85
2021/09/13 19:48:41;;;;;;;0.00;0.00;;;13.10;99.90;;;;;;5085797;28;20100;-85
2021/09/13 19:51:08;;;;;;;0.00;0.00;;;13.10;99.90;;;;;;5099340;28;20044;-84
2021/09/13 19:53:38;;;;;;;0.08;0.08;;;13.00;99.90;;;;;;5081818;28;20082;-85
2021/09/13 19:56:09;;;;;;;0.03;0.03;;;13.00;99.90;;;;;;5084761;28;20050;-85
2021/09/13 19:58:36;;;;;;;0.08;0.08;;;13.00;99.90;;;;;;5082688;28;20092;-86
2021/09/13 20:01:03;;;;;;;0.00;0.00;;;12.90;99.90;;;;;;5082894;28;20036;-85
2021/09/13 20:03:30;;;;;;;0.10;0.10;;;12.90;99.90;;;;;;5082395;28;20043;-85
2021/09/13 20:05:57;;;;;;;0.10;0.10;;;12.90;99.90;;;;;;5099184;28;20231;-85
2021/09/13 20:08:23;;;;;;;0.20;0.13;;;12.80;99.90;;;;;;5099260;28;20571;-85
2021/09/13 20:10:50;;;;;;;0.05;0.05;;;12.90;99.90;;;;;;5098840;28;20044;-84
2021/09/13 20:13:17;;;;;;;0.00;0.00;;;12.80;99.90;;;;;;5082227;28;20407;-85
2021/09/13 20:15:43;;;;;;;0.00;0.00;;;12.80;99.90;;;;;;5098690;28;20036;-85
2021/09/13 20:18:10;;;;;;;0.10;0.10;;;12.80;99.90;;;;;;5099136;28;20515;-84
2021/09/13 20:20:37;;;;;;;0.38;0.20;;;12.80;99.90;;;;;;5099046;28;20039;-85
2021/09/13 20:23:04;;;;;;;0.00;0.00;;;12.80;99.90;;;;;;5099053;28;20058;-85
2021/09/13 20:25:31;;;;;;;0.00;0.00;;;12.80;99.90;;;;;;5099405;28;20042;-85
2021/09/13 20:28:00;;;;;;;0.17;0.10;;;12.80;99.90;;;;;;5098751;28;20047;-85
2021/09/13 20:30:27;;;;;;;0.00;0.00;;;12.80;99.90;;;;;;5099307;28;20517;-85
2021/09/13 20:32:53;;;;;;;0.05;0.05;;;12.70;99.90;;;;;;5098742;28;20043;-85
2021/09/13 20:35:20;;;;;;;0.00;0.00;;;12.70;99.90;;;;;;5098903;28;20097;-85
2021/09/13 20:37:47;;;;;;;0.00;0.00;;;12.70;99.90;;;;;;5098342;28;20043;-85
2021/09/13 20:40:15;;;;;;;0.00;0.00;;;12.70;99.90;;;;;;5098815;28;20446;-85